NCAR-RAP Real-Time Weather Data

Output produced by METARs form (10 April 2020  05:41 UTC)
found at http://weather.rap.ucar.edu/surface/
 
KHTL 100453Z AUTO 32011G19KT 10SM FEW018 OVC040 M01/M04 A2968 RMK AO2 PK WND 33027/0426 SLP064 T10061044 400441011